WGE weather

Walgett Airport
New South Wales, Australia

Public forecast

Using degrees Celsius for public forecast. Weather courtesy of forecast.io.

Closest aviation weather report (METAR) to Walgett Airport

Closest report is Coonamble Airport, 58.5 nm (108.4 km) SSE. Retrieved 2019/12/15 15:00 UTC (21 minutes ago):

YCNM 151500Z AUTO 20007KT //// // ////// 25/01 Q1009

Closest aviation forecast (TAF) to Walgett Airport

Closest forecast is Tamworth Airport, 154.2 nm (285.5 km) ESE. Retrieved 2019/12/15 12:36 UTC (3 hours ago):

TAF TAF YSTW 151108Z 1512/1606 25008KT CAVOK FM151400 VRB05KT CAVOK FM152300 20012KT CAVOK PROB30 1514/1523 5000 FU